Terminal Aerodrome Forecast
Issued by NWS

Home | Current Version | Previous Version | Text Only | Print | Product List | Glossary On
Versions: 1 2 3 4 5 6 7 8 9 10 11 12 13 14 15 16 17 18 19 20 21 22 23 24 25 26 27 28 29 30 31 32 33 34 35 36 37 38 39 40
000
FTUS45 KBYZ 280536
TAFLVM
TAF
KLVM 280536Z 2806/2906 25006KT P6SM VCSH OVC040
     FM280800 32010KT 5SM -SHRASN BR SCT015 OVC040
     FM281100 32010KT P6SM VCSH BKN015 OVC025
     FM281800 32010KT P6SM SCT030 SCT050 BKN100=

USA.gov is the U.S. government's official web portal to all federal, state and local government web resources and services.